createdAt,value
2023-04-09T00:02:28.698Z,20.17
2023-04-09T00:05:29.712Z,20.23
2023-04-09T00:08:31.968Z,20.48
2023-04-09T00:11:32.599Z,20.27
2023-04-09T00:14:33.645Z,20.21
2023-04-09T00:17:34.637Z,20.33
2023-04-09T00:20:35.636Z,20.23
2023-04-09T00:23:36.627Z,20.58
2023-04-09T00:26:38.677Z,20.35
2023-04-09T00:29:39.600Z,20.27
2023-04-09T00:32:42.787Z,20.29
2023-04-09T00:35:43.708Z,20.29
2023-04-09T00:38:44.624Z,20.14
2023-04-09T00:41:45.732Z,20.57
2023-04-09T00:44:46.664Z,20.25
2023-04-09T00:47:47.640Z,20.27
2023-04-09T00:50:49.642Z,20.09
2023-04-09T00:53:50.602Z,20.32
2023-04-09T00:56:52.628Z,19.76
2023-04-09T00:59:53.600Z,20.44
2023-04-09T01:02:54.689Z,20.39
2023-04-09T01:06:19.691Z,20.39
2023-04-09T01:09:26.818Z,20.01
2023-04-09T01:12:50.607Z,20.45
2023-04-09T01:16:01.632Z,20.45
2023-04-09T01:19:10.629Z,20.45
2023-04-09T01:22:11.656Z,20.29
2023-04-09T01:25:31.618Z,20.41
2023-04-09T01:28:36.943Z,20.69
2023-04-09T01:31:50.607Z,20.12
2023-04-09T01:34:51.632Z,20.51
2023-04-09T01:37:52.577Z,20.31
2023-04-09T01:40:53.656Z,20.14
2023-04-09T01:43:55.599Z,20.35
2023-04-09T01:46:56.646Z,20.19
2023-04-09T01:49:57.579Z,20.40
2023-04-09T01:52:58.635Z,20.57
2023-04-09T01:55:59.570Z,20.33
2023-04-09T01:59:00.666Z,20.54
2023-04-09T02:02:03.598Z,20.56
2023-04-09T02:05:08.652Z,20.24
2023-04-09T02:08:10.616Z,20.55
2023-04-09T02:11:14.610Z,20.75
2023-04-09T02:14:17.597Z,20.52
2023-04-09T02:17:18.665Z,20.58
2023-04-09T02:20:19.632Z,20.27
2023-04-09T02:23:20.640Z,20.08
2023-04-09T02:26:21.580Z,20.19
2023-04-09T02:29:22.636Z,20.38
2023-04-09T02:32:23.854Z,20.49
2023-04-09T02:35:24.613Z,20.15
2023-04-09T02:38:25.592Z,20.25
2023-04-09T02:41:26.611Z,20.43
2023-04-09T02:44:27.623Z,20.35
2023-04-09T02:47:28.633Z,20.47
2023-04-09T02:50:30.595Z,20.67
2023-04-09T02:53:31.609Z,20.58
2023-04-09T02:56:32.616Z,20.44
2023-04-09T02:59:33.699Z,20.40
2023-04-09T03:02:34.691Z,20.67
2023-04-09T03:05:35.687Z,20.48
2023-04-09T03:08:36.606Z,20.71
2023-04-09T03:11:37.716Z,20.64
2023-04-09T03:14:38.600Z,20.52
2023-04-09T03:17:39.652Z,20.56
2023-04-09T03:20:40.602Z,20.44
2023-04-09T03:23:42.630Z,20.33
2023-04-09T03:26:43.582Z,20.47
2023-04-09T03:29:44.635Z,20.61
2023-04-09T03:32:45.578Z,20.62
2023-04-09T03:35:49.730Z,20.63
2023-04-09T03:39:03.592Z,20.36
2023-04-09T03:42:08.683Z,20.32
2023-04-09T03:45:14.623Z,20.29
2023-04-09T03:48:18.665Z,20.45
2023-04-09T03:51:19.580Z,20.58
2023-04-09T03:54:24.604Z,20.31
2023-04-09T03:57:26.616Z,20.18
2023-04-09T04:00:27.619Z,20.37
2023-04-09T04:03:49.695Z,20.22
2023-04-09T04:06:58.660Z,20.18
2023-04-09T04:10:03.613Z,20.18
2023-04-09T04:13:08.977Z,20.25
2023-04-09T04:16:22.644Z,20.20
2023-04-09T04:19:23.663Z,20.31
2023-04-09T04:22:26.084Z,20.27
2023-04-09T04:25:33.618Z,20.11
2023-04-09T04:28:34.584Z,20.20
2023-04-09T04:31:48.467Z,20.40
2023-04-09T04:34:52.634Z,20.24
2023-04-09T04:37:53.615Z,20.28
2023-04-09T04:40:55.570Z,20.31
2023-04-09T04:43:59.589Z,20.51
2023-04-09T04:47:00.586Z,20.43
2023-04-09T04:50:01.616Z,20.40
2023-04-09T04:53:15.554Z,20.13
2023-04-09T04:56:17.623Z,20.12
2023-04-09T04:59:29.529Z,19.98
2023-04-09T05:02:32.737Z,19.91
2023-04-09T05:06:02.552Z,19.88
2023-04-09T05:09:09.618Z,20.02
2023-04-09T05:12:24.598Z,20.13
2023-04-09T05:15:27.685Z,20.12
2023-04-09T05:18:28.597Z,20.21
2023-04-09T05:21:29.605Z,20.16
2023-04-09T05:24:30.553Z,20.22
2023-04-09T05:27:32.613Z,20.19
2023-04-09T05:30:33.620Z,20.19
2023-04-09T05:33:35.580Z,19.90
2023-04-09T05:36:43.697Z,20.00
2023-04-09T05:39:46.625Z,19.98
2023-04-09T05:42:47.574Z,20.23
2023-04-09T05:45:55.654Z,19.97
2023-04-09T05:48:56.594Z,19.96
2023-04-09T05:51:58.605Z,20.02
2023-04-09T05:54:59.569Z,19.88
2023-04-09T05:58:10.612Z,19.92
2023-04-09T06:01:11.583Z,19.76
2023-04-09T06:04:12.833Z,20.12
2023-04-09T06:07:13.555Z,20.08
2023-04-09T06:10:14.895Z,20.12
2023-04-09T06:13:21.606Z,19.75
2023-04-09T06:16:22.679Z,20.13
2023-04-09T06:19:23.580Z,19.73
2023-04-09T06:22:24.616Z,20.00
2023-04-09T06:25:25.550Z,20.02
2023-04-09T06:28:26.589Z,19.91
2023-04-09T06:31:27.578Z,19.95
2023-04-09T06:34:28.598Z,19.88
2023-04-09T06:37:29.576Z,20.02
2023-04-09T06:40:30.611Z,19.87
2023-04-09T06:43:31.535Z,20.19
2023-04-09T06:46:32.693Z,20.13
2023-04-09T06:49:33.556Z,20.00
2023-04-09T06:52:59.606Z,20.11
2023-04-09T06:56:00.537Z,20.04
2023-04-09T06:59:01.614Z,20.11
2023-04-09T07:02:02.612Z,19.88
2023-04-09T07:05:03.593Z,19.99
2023-04-09T07:08:04.543Z,19.97
2023-04-09T07:11:05.611Z,19.88
2023-04-09T07:14:10.542Z,20.13
2023-04-09T07:17:11.810Z,20.00
2023-04-09T07:20:12.550Z,20.01
2023-04-09T07:23:13.599Z,20.00
2023-04-09T07:26:15.560Z,20.12
2023-04-09T07:29:16.558Z,19.81
2023-04-09T07:32:17.555Z,19.89
2023-04-09T07:35:20.590Z,19.85
2023-04-09T07:38:21.560Z,19.82
2023-04-09T07:41:24.590Z,19.32
2023-04-09T07:44:25.555Z,19.91
2023-04-09T07:47:26.597Z,19.78
2023-04-09T07:50:46.746Z,19.96
2023-04-09T07:53:33.598Z,19.97
2023-04-09T07:56:34.553Z,19.77
2023-04-09T07:59:36.656Z,19.82
2023-04-09T08:02:37.647Z,19.68
2023-04-09T08:05:38.575Z,19.93
2023-04-09T08:08:39.556Z,19.73
2023-04-09T08:11:42.576Z,19.78
2023-04-09T08:14:43.586Z,19.86
2023-04-09T08:17:44.732Z,19.74
2023-04-09T08:20:51.519Z,19.79
2023-04-09T08:23:52.605Z,19.88
2023-04-09T08:26:53.552Z,19.28
2023-04-09T08:30:19.564Z,19.67
2023-04-09T08:33:20.531Z,19.66
2023-04-09T08:36:23.605Z,19.84
2023-04-09T08:39:27.529Z,19.01
2023-04-09T08:42:30.601Z,19.38
2023-04-09T08:45:57.563Z,19.28
2023-04-09T08:48:58.590Z,19.64
2023-04-09T08:52:01.147Z,19.67
2023-04-09T08:55:01.687Z,20.04
2023-04-09T08:58:02.523Z,19.49
2023-04-09T09:01:03.590Z,19.43
2023-04-09T09:04:14.623Z,19.97
2023-04-09T09:07:19.635Z,19.81
2023-04-09T09:10:20.537Z,19.75
2023-04-09T09:13:30.536Z,19.97
2023-04-09T09:16:31.569Z,19.89
2023-04-09T09:19:37.746Z,20.01
2023-04-09T09:22:38.597Z,19.84
2023-04-09T09:25:39.565Z,19.78
2023-04-09T09:28:47.572Z,19.74
2023-04-09T09:31:59.625Z,19.98
2023-04-09T09:35:10.526Z,19.50
2023-04-09T09:38:14.563Z,20.03
2023-04-09T09:41:29.534Z,19.86
2023-04-09T09:44:47.536Z,19.65
2023-04-09T09:47:48.603Z,19.94
2023-04-09T09:50:49.587Z,19.89
2023-04-09T09:53:50.522Z,19.67
2023-04-09T09:56:55.753Z,19.96
2023-04-09T10:00:04.573Z,19.95
2023-04-09T10:03:35.609Z,20.02
2023-04-09T10:06:37.540Z,19.91
2023-04-09T10:09:40.545Z,20.04
2023-04-09T10:12:41.531Z,19.71
2023-04-09T10:15:42.559Z,19.98
2023-04-09T10:18:44.625Z,19.74
2023-04-09T10:21:48.660Z,19.58
2023-04-09T10:24:49.506Z,19.64
2023-04-09T10:27:55.548Z,20.01
2023-04-09T10:30:56.534Z,19.80
2023-04-09T10:33:57.556Z,19.85
2023-04-09T10:36:59.508Z,19.79
2023-04-09T10:40:00.589Z,19.64
2023-04-09T10:43:01.514Z,19.68
2023-04-09T10:46:02.567Z,19.87
2023-04-09T10:49:03.519Z,19.83
2023-04-09T10:52:05.570Z,20.09
2023-04-09T10:55:06.508Z,19.59
2023-04-09T10:58:11.368Z,19.66
2023-04-09T11:01:14.518Z,19.66
2023-04-09T11:04:22.576Z,19.79
2023-04-09T11:07:23.542Z,19.81
2023-04-09T11:10:28.548Z,19.84
2023-04-09T11:13:29.533Z,20.04
2023-04-09T11:16:30.606Z,20.03
2023-04-09T11:19:31.580Z,20.37
2023-04-09T11:22:32.737Z,20.04
2023-04-09T11:25:37.554Z,20.01
2023-04-09T11:28:38.537Z,19.80
2023-04-09T11:31:41.586Z,19.28
2023-04-09T11:34:42.543Z,19.96
2023-04-09T11:37:43.743Z,19.69
2023-04-09T11:40:44.534Z,19.75
2023-04-09T11:43:45.550Z,19.92
2023-04-09T11:46:46.571Z,20.22
2023-04-09T11:49:47.484Z,20.14
2023-04-09T11:52:48.549Z,20.04
2023-04-09T11:55:49.499Z,20.01
2023-04-09T11:58:50.756Z,20.15
2023-04-09T12:01:51.646Z,19.34
2023-04-09T12:05:02.646Z,19.63
2023-04-09T12:08:03.509Z,20.02
2023-04-09T12:11:04.531Z,19.86
2023-04-09T12:14:12.532Z,19.76
2023-04-09T12:17:13.544Z,19.60
2023-04-09T12:20:16.534Z,20.30
2023-04-09T12:23:17.838Z,19.71
2023-04-09T12:26:18.497Z,19.95
2023-04-09T12:29:19.549Z,19.76
2023-04-09T12:32:20.534Z,19.75
2023-04-09T12:35:21.556Z,19.56
2023-04-09T12:38:22.498Z,19.84
2023-04-09T12:41:23.525Z,20.00
2023-04-09T12:44:24.519Z,20.02
2023-04-09T12:47:25.529Z,19.80
2023-04-09T12:50:27.730Z,19.99
2023-04-09T12:53:28.557Z,19.84
2023-04-09T12:56:29.907Z,19.97
2023-04-09T12:59:30.584Z,19.60
2023-04-09T13:02:31.774Z,20.10
2023-04-09T13:05:33.558Z,19.90
2023-04-09T13:08:34.483Z,19.74
2023-04-09T13:11:35.525Z,19.80
2023-04-09T13:14:36.521Z,19.84
2023-04-09T13:17:37.576Z,20.13
2023-04-09T13:20:38.511Z,20.12
2023-04-09T13:23:39.872Z,20.04
2023-04-09T13:26:40.466Z,19.93
2023-04-09T13:29:41.535Z,20.20
2023-04-09T13:32:42.628Z,20.23
2023-04-09T13:35:43.575Z,20.18
2023-04-09T13:38:44.553Z,19.89
2023-04-09T13:41:47.553Z,20.01
2023-04-09T13:44:51.479Z,20.26
2023-04-09T13:47:52.598Z,20.27
2023-04-09T13:50:53.492Z,19.94
2023-04-09T13:53:54.544Z,20.17
2023-04-09T13:56:56.495Z,20.10
2023-04-09T13:59:57.511Z,19.93
2023-04-09T14:02:58.609Z,20.09
2023-04-09T14:06:02.523Z,20.23
2023-04-09T14:09:03.530Z,20.43
2023-04-09T14:12:04.532Z,20.16
2023-04-09T14:15:05.478Z,20.26
2023-04-09T14:18:06.602Z,19.93
2023-04-09T14:21:09.517Z,20.14
2023-04-09T14:24:11.587Z,20.13
2023-04-09T14:27:12.505Z,20.29
2023-04-09T14:30:14.540Z,20.21
2023-04-09T14:33:15.478Z,20.09
2023-04-09T14:36:16.530Z,20.26
2023-04-09T14:39:17.550Z,20.19
2023-04-09T14:42:19.516Z,20.10
2023-04-09T14:45:20.462Z,20.24
2023-04-09T14:48:22.564Z,20.38
2023-04-09T14:51:23.494Z,20.58
2023-04-09T14:54:24.551Z,20.78
2023-04-09T14:57:25.479Z,20.43
2023-04-09T15:00:26.543Z,20.34
2023-04-09T15:03:28.613Z,20.38
2023-04-09T15:06:30.518Z,20.62
2023-04-09T15:09:31.474Z,20.34
2023-04-09T15:12:32.541Z,20.13
2023-04-09T15:15:33.488Z,20.33
2023-04-09T15:18:34.548Z,20.61
2023-04-09T15:21:35.527Z,20.56
2023-04-09T15:24:36.683Z,20.23
2023-04-09T15:27:37.488Z,20.03
2023-04-09T15:30:38.573Z,20.20
2023-04-09T15:33:39.493Z,20.14
2023-04-09T15:36:43.488Z,20.34
2023-04-09T15:39:44.477Z,20.34
2023-04-09T15:42:45.517Z,20.28
2023-04-09T15:45:46.530Z,20.59
2023-04-09T15:48:47.535Z,20.41
2023-04-09T15:51:48.479Z,20.45
2023-04-09T15:54:49.505Z,20.21
2023-04-09T15:57:53.463Z,20.22
2023-04-09T16:00:56.578Z,20.61
2023-04-09T16:03:58.591Z,20.64
2023-04-09T16:07:00.505Z,20.53
2023-04-09T16:10:01.455Z,20.47
2023-04-09T16:13:02.521Z,20.35
2023-04-09T16:16:03.560Z,19.98
2023-04-09T16:19:04.514Z,20.34
2023-04-09T16:22:05.503Z,20.33
2023-04-09T16:25:06.933Z,20.17
2023-04-09T16:28:09.467Z,20.18
2023-04-09T16:31:10.536Z,20.31
2023-04-09T16:34:11.471Z,20.33
2023-04-09T16:37:12.556Z,20.17
2023-04-09T16:40:13.451Z,20.28
2023-04-09T16:43:14.512Z,20.32
2023-04-09T16:46:15.465Z,20.44
2023-04-09T16:49:16.522Z,20.56
2023-04-09T16:52:17.490Z,20.33
2023-04-09T16:55:18.476Z,20.50
2023-04-09T16:58:19.461Z,20.17
2023-04-09T17:01:20.554Z,20.26
2023-04-09T17:04:21.467Z,20.42
2023-04-09T17:07:22.514Z,20.67
2023-04-09T17:10:23.494Z,20.43
2023-04-09T17:13:24.617Z,20.15
2023-04-09T17:16:25.546Z,20.33
2023-04-09T17:19:26.564Z,20.42
2023-04-09T17:22:27.482Z,20.27
2023-04-09T17:25:28.596Z,20.40
2023-04-09T17:28:29.487Z,20.48
2023-04-09T17:31:30.566Z,20.50
2023-04-09T17:34:31.469Z,20.17
2023-04-09T17:37:32.495Z,20.51
2023-04-09T17:40:33.458Z,20.54
2023-04-09T17:43:34.502Z,20.22
2023-04-09T17:46:35.479Z,20.28
2023-04-09T17:49:36.524Z,20.47
2023-04-09T17:52:43.449Z,20.21
2023-04-09T17:55:44.497Z,20.23
2023-04-09T17:58:45.467Z,19.90
2023-04-09T18:01:46.693Z,20.20
2023-04-09T18:04:47.855Z,20.26
2023-04-09T18:07:48.519Z,20.23
2023-04-09T18:10:50.865Z,19.92
2023-04-09T18:13:52.473Z,20.47
2023-04-09T18:16:53.465Z,20.47
2023-04-09T18:19:54.529Z,20.25
2023-04-09T18:22:58.548Z,20.24
2023-04-09T18:26:02.704Z,20.29
2023-04-09T18:29:03.447Z,20.20
2023-04-09T18:32:04.479Z,20.01
2023-04-09T18:35:07.516Z,20.12
2023-04-09T18:38:08.491Z,20.35
2023-04-09T18:41:09.456Z,20.26
2023-04-09T18:44:10.482Z,20.18
2023-04-09T18:47:12.479Z,20.34
2023-04-09T18:50:13.517Z,20.30
2023-04-09T18:53:14.505Z,20.61
2023-04-09T18:56:15.496Z,20.43
2023-04-09T18:59:16.426Z,20.25
2023-04-09T19:02:17.530Z,20.24
2023-04-09T19:05:18.463Z,20.16
2023-04-09T19:08:19.500Z,20.26
2023-04-09T19:11:20.448Z,20.28
2023-04-09T19:14:21.493Z,20.03
2023-04-09T19:17:22.512Z,19.96
2023-04-09T19:20:23.573Z,20.26
2023-04-09T19:23:24.505Z,19.92
2023-04-09T19:26:25.698Z,19.98
2023-04-09T19:29:26.429Z,20.10
2023-04-09T19:32:27.513Z,20.06
2023-04-09T19:35:28.488Z,20.15
2023-04-09T19:38:29.476Z,20.02
2023-04-09T19:41:30.445Z,19.96
2023-04-09T19:44:31.486Z,20.16
2023-04-09T19:47:32.504Z,20.01
2023-04-09T19:50:36.558Z,19.82
2023-04-09T19:53:37.434Z,19.97
2023-04-09T19:56:39.478Z,20.02
2023-04-09T19:59:42.459Z,20.12
2023-04-09T20:02:44.682Z,19.89
2023-04-09T20:05:45.462Z,19.56
2023-04-09T20:08:46.556Z,19.77
2023-04-09T20:11:47.477Z,19.91
2023-04-09T20:14:48.513Z,19.75
2023-04-09T20:17:49.613Z,19.52
2023-04-09T20:20:50.472Z,19.93
2023-04-09T20:23:52.446Z,20.18
2023-04-09T20:26:54.530Z,19.92
2023-04-09T20:29:55.416Z,19.89
2023-04-09T20:32:56.592Z,19.82
2023-04-09T20:35:58.481Z,20.03
2023-04-09T20:38:59.498Z,19.74
2023-04-09T20:42:00.438Z,19.63
2023-04-09T20:45:02.017Z,19.40
2023-04-09T20:48:03.530Z,19.93
2023-04-09T20:51:04.498Z,20.06
2023-04-09T20:54:05.451Z,20.16
2023-04-09T20:57:06.473Z,20.03
2023-04-09T21:00:08.611Z,20.15
2023-04-09T21:03:09.713Z,19.96
2023-04-09T21:06:10.428Z,20.07
2023-04-09T21:09:11.491Z,20.24
2023-04-09T21:12:12.480Z,19.97
2023-04-09T21:15:13.444Z,19.88
2023-04-09T21:18:14.528Z,19.91
2023-04-09T21:21:20.494Z,19.53
2023-04-09T21:24:21.441Z,20.31
2023-04-09T21:27:23.519Z,19.79
2023-04-09T21:30:24.476Z,20.01
2023-04-09T21:33:26.305Z,19.83
2023-04-09T21:36:27.419Z,20.16
2023-04-09T21:39:28.480Z,19.98
2023-04-09T21:42:29.425Z,20.04
2023-04-09T21:45:30.471Z,20.32
2023-04-09T21:48:31.482Z,20.19
2023-04-09T21:51:32.539Z,20.32
2023-04-09T21:54:33.417Z,20.35
2023-04-09T21:57:34.510Z,20.16
2023-04-09T22:00:36.425Z,20.24
2023-04-09T22:03:37.628Z,20.33
2023-04-09T22:06:38.450Z,20.31
2023-04-09T22:09:39.494Z,20.34
2023-04-09T22:12:40.417Z,20.42
2023-04-09T22:15:41.535Z,20.10
2023-04-09T22:18:42.580Z,20.39
2023-04-09T22:21:43.473Z,20.33
2023-04-09T22:24:45.424Z,20.34
2023-04-09T22:27:46.638Z,20.39
2023-04-09T22:30:47.488Z,20.32
2023-04-09T22:33:48.494Z,20.11
2023-04-09T22:36:49.465Z,20.08
2023-04-09T22:39:50.467Z,20.04
2023-04-09T22:42:51.495Z,19.93
2023-04-09T22:45:52.433Z,20.26
2023-04-09T22:48:53.431Z,20.19
2023-04-09T22:51:54.454Z,20.20
2023-04-09T22:54:55.418Z,20.23
2023-04-09T22:57:56.462Z,20.17
2023-04-09T23:00:57.438Z,20.25
2023-04-09T23:03:58.498Z,20.23
2023-04-09T23:07:00.432Z,20.39
2023-04-09T23:10:04.453Z,20.34
2023-04-09T23:13:05.431Z,20.33
2023-04-09T23:16:06.541Z,20.15
2023-04-09T23:19:07.401Z,20.27
2023-04-09T23:22:08.459Z,20.32
2023-04-09T23:25:09.415Z,20.16
2023-04-09T23:28:10.614Z,20.01
2023-04-09T23:31:11.445Z,20.50
2023-04-09T23:34:12.447Z,20.26
2023-04-09T23:37:13.419Z,20.45
2023-04-09T23:40:39.454Z,20.71
2023-04-09T23:43:40.434Z,20.40
2023-04-09T23:46:41.475Z,20.58
2023-04-09T23:49:42.416Z,20.34
2023-04-09T23:52:43.449Z,20.27
2023-04-09T23:55:48.398Z,20.12
2023-04-09T23:59:14.487Z,20.58
